Terminal Aerodrome Forecast
Issued by NWS

Home | Current Version | Previous Version | Text Only | Print | Product List | Glossary On
Versions: 1 2 3 4 5 6 7 8 9 10 11 12 13 14 15 16 17 18 19
000
FTUS44 KMOB 072320
TAFBFM
TAF
KBFM 072320Z 0800/0824 VRB06KT P6SM SCT022 BKN035
     FM080100 35005KT P6SM BKN025
     FM080900 35010KT P6SM OVC014
      TEMPO 0809/0813 OVC008
     FM081500 35014G22KT P6SM SCT050=

USA.gov is the U.S. government's official web portal to all federal, state and local government web resources and services.